Time;durP1;ratioP1;P1;durP2;ratioP2;P2;SDS_P1;SDS_P2;PMS_P1;PMS_P2;Temp;Humidity;BMP_temperature;BMP_pressure;BME280_temperature;BME280_humidity;BME280_pressure;Samples;Min_cycle;Max_cycle;Signal;HPM_P1;HPM_P2
2023/08/16 00:01:37;;;;;;;;;;;20.50;71.60;;;19.79;65.45;96654.50;6082063;23;19921;-87
2023/08/16 00:04:06;;;;;;;;;;;20.40;71.80;;;19.81;65.38;96656.94;6059478;23;20258;-87
2023/08/16 00:06:35;;;;;;;;;;;20.50;71.90;;;19.80;65.64;96670.03;6059818;23;19921;-87
2023/08/16 00:09:04;;;;;;;;;;;20.40;71.80;;;19.80;65.38;96661.69;6083549;23;19921;-86
2023/08/16 00:11:33;;;;;;;;;;;20.40;71.80;;;19.80;65.27;96652.53;6082875;23;19928;-86
2023/08/16 00:14:06;;;;;;;;;;;20.40;71.70;;;19.81;65.39;96657.78;6083499;23;19928;-86
2023/08/16 00:16:34;;;;;;;;;;;20.40;72.50;;;19.81;65.38;96657.78;6059974;23;19921;-87
2023/08/16 00:19:07;;;;;;;;;;;20.40;71.60;;;19.82;65.59;96658.59;6059581;23;19928;-86
2023/08/16 00:21:37;;;;;;;;;;;20.40;71.60;;;19.81;65.20;96656.94;6058884;23;19928;-87
2023/08/16 00:24:07;;;;;;;;;;;20.40;71.60;;;19.80;65.15;96647.81;6082834;23;19921;-86
2023/08/16 00:26:35;;;;;;;;;;;20.40;71.60;;;19.79;65.27;96660.06;6082652;23;19928;-86
2023/08/16 00:29:04;;;;;;;;;;;20.40;71.60;;;19.79;65.28;96651.72;6059185;23;19936;-87
2023/08/16 00:31:43;;;;;;;;;;;20.40;71.50;;;19.79;65.49;96640.59;6060587;23;19932;-87
2023/08/16 00:34:18;;;;;;;;;;;20.40;71.50;;;19.77;65.22;96649.25;6059574;23;19932;-87
2023/08/16 00:36:47;;;;;;;;;;;20.40;72.30;;;19.79;65.23;96648.94;6059915;23;20232;-87
2023/08/16 00:39:15;;;;;;;;;;;20.40;71.30;;;19.78;65.16;96650.88;6059427;23;19928;-86
2023/08/16 00:41:44;;;;;;;;;;;20.40;71.30;;;19.78;64.97;96645.31;6058999;23;19921;-87
2023/08/16 00:44:14;;;;;;;;;;;20.40;71.20;;;19.76;64.94;96641.25;6059726;23;19921;-87
2023/08/16 00:46:43;;;;;;;;;;;20.40;71.20;;;19.77;65.04;96643.69;6081703;23;19929;-86
2023/08/16 00:49:16;;;;;;;;;;;20.40;71.10;;;19.77;65.11;96643.69;6059637;23;20337;-86
2023/08/16 00:51:47;;;;;;;;;;;20.40;71.00;;;19.77;64.80;96631.78;6059030;23;19928;-87
2023/08/16 00:54:17;;;;;;;;;;;20.40;70.90;;;19.73;64.86;96631.59;6059345;23;19928;-87
2023/08/16 00:56:48;;;;;;;;;;;20.40;70.90;;;19.73;64.99;96631.59;6059425;23;19928;-87
2023/08/16 00:59:16;;;;;;;;;;;20.40;70.90;;;19.73;64.62;96639.94;6059614;23;20252;-86
2023/08/16 01:01:47;;;;;;;;;;;20.40;70.80;;;19.73;64.60;96653.81;6082388;23;19943;-86
2023/08/16 01:04:19;;;;;;;;;;;20.40;70.80;;;19.72;64.69;96645.78;6059693;23;19928;-87
2023/08/16 01:06:53;;;;;;;;;;;20.40;70.70;;;19.73;64.58;96650.19;6083011;23;19921;-87
2023/08/16 01:09:23;;;;;;;;;;;20.40;70.70;;;19.71;64.47;96649.69;6059497;23;19925;-87
2023/08/16 01:12:00;;;;;;;;;;;20.40;70.60;;;19.71;64.42;96638.59;6059223;23;19921;-86
2023/08/16 01:14:34;;;;;;;;;;;20.40;70.60;;;19.71;64.36;96638.59;6083091;23;19944;-87
2023/08/16 01:17:35;;;;;;;;;;;20.40;70.50;;;19.71;64.46;96644.13;6059310;23;19921;-87
2023/08/16 01:20:11;;;;;;;;;;;20.40;70.50;;;19.70;64.55;96651.66;6059497;23;19921;-87
2023/08/16 01:23:03;;;;;;;;;;;20.40;70.50;;;19.68;64.40;96650.34;6083145;23;19932;-86
2023/08/16 01:25:43;;;;;;;;;;;20.40;70.50;;;19.69;64.13;96651.97;6083074;23;19928;-87
2023/08/16 01:28:18;;;;;;;;;;;20.40;70.40;;;19.68;64.07;96655.91;6059796;23;19921;-87
2023/08/16 01:30:46;;;;;;;;;;;20.40;70.30;;;19.66;64.18;96652.63;6059526;23;19928;-86
2023/08/16 01:33:24;;;;;;;;;;;20.30;70.20;;;19.67;64.22;96646.75;6081959;23;20375;-87
2023/08/16 01:35:58;;;;;;;;;;;20.30;70.30;;;19.65;64.12;96646.25;6060044;23;19921;-86
2023/08/16 01:38:32;;;;;;;;;;;20.30;70.30;;;19.65;64.30;96639.88;6060032;23;19921;-86
2023/08/16 01:41:15;;;;;;;;;;;20.30;70.20;;;19.65;64.04;96628.78;6059214;23;19921;-87
2023/08/16 01:43:52;;;;;;;;;;;20.30;70.20;;;19.63;64.29;96632.69;6083797;23;19921;-86
2023/08/16 01:46:23;;;;;;;;;;;20.30;70.20;;;19.63;64.14;96627.13;6059433;23;19921;-86
2023/08/16 01:51:58;;;;;;;;;;;20.30;70.20;;;19.65;64.07;96620.44;6059659;23;20245;-87
2023/08/16 01:54:50;;;;;;;;;;;20.30;70.10;;;19.61;63.67;96621.06;6040515;23;19921;-86
2023/08/16 01:57:25;;;;;;;;;;;20.30;70.00;;;19.62;63.82;96624.69;6060116;23;19936;-86
2023/08/16 01:59:59;;;;;;;;;;;20.30;70.00;;;19.63;64.01;96626.28;6060018;23;19921;-87
2023/08/16 02:02:28;;;;;;;;;;;20.30;70.10;;;19.61;63.87;96631.38;6058876;23;19921;-86
2023/08/16 02:04:58;;;;;;;;;;;20.30;70.10;;;19.59;63.72;96625.31;6058737;23;19928;-86
2023/08/16 02:07:28;;;;;;;;;;;20.30;70.00;;;19.60;63.85;96632.50;6059294;23;20352;-86
2023/08/16 02:10:00;;;;;;;;;;;20.30;70.00;;;19.60;63.96;96638.88;6059602;23;19921;-87
2023/08/16 02:12:31;;;;;;;;;;;20.30;69.90;;;19.59;63.81;96625.31;6036191;23;19921;-86
2023/08/16 02:15:02;;;;;;;;;;;20.30;69.80;;;19.59;63.80;96625.31;6058846;23;19928;-87
2023/08/16 02:17:35;;;;;;;;;;;20.30;69.80;;;19.57;63.56;96624.81;6059845;23;19921;-86
2023/08/16 02:20:12;;;;;;;;;;;20.20;69.60;;;19.56;63.78;96614.84;6058504;23;22303;-86
2023/08/16 02:22:43;;;;;;;;;;;20.20;69.60;;;19.54;63.74;96606.84;6081001;23;20235;-86
2023/08/16 02:25:13;;;;;;;;;;;20.20;69.60;;;19.54;63.54;96606.84;6058815;23;19921;-86
2023/08/16 02:27:42;;;;;;;;;;;20.20;69.60;;;19.53;63.70;96609.91;6082330;23;19928;-86
2023/08/16 02:30:12;;;;;;;;;;;20.20;69.60;;;19.52;63.78;96631.31;6058715;23;19921;-86
2023/08/16 02:32:45;;;;;;;;;;;20.20;69.70;;;19.52;63.68;96634.09;6058689;23;19925;-86
2023/08/16 02:35:14;;;;;;;;;;;20.20;69.70;;;19.51;63.90;96640.78;6059667;23;19928;-86
2023/08/16 02:37:43;;;;;;;;;;;20.20;69.70;;;19.52;63.50;96630.50;6058679;23;19925;-86
2023/08/16 02:40:12;;;;;;;;;;;20.20;69.70;;;19.52;63.75;96625.78;6059048;23;19928;-86
2023/08/16 02:42:45;;;;;;;;;;;20.20;69.60;;;19.49;63.58;96626.41;6058181;23;19928;-86
2023/08/16 02:45:22;;;;;;;;;;;20.20;69.60;;;19.50;63.40;96641.91;6058969;23;19921;-86
2023/08/16 02:47:57;;;;;;;;;;;20.20;69.60;;;19.48;63.92;96641.41;6058957;23;19973;-86
2023/08/16 02:50:27;;;;;;;;;;;20.20;69.70;;;19.50;63.85;96638.31;6082084;23;19921;-86
2023/08/16 02:52:55;;;;;;;;;;;20.20;69.80;;;19.49;63.83;96631.94;6058915;23;19929;-86
2023/08/16 02:55:33;;;;;;;;;;;20.20;69.90;;;19.49;63.67;96631.94;6085222;23;19924;-86
2023/08/16 02:58:05;;;;;;;;;;;20.20;69.70;;;19.47;63.97;96628.66;6060308;23;19926;-86
2023/08/16 03:00:35;;;;;;;;;;;20.20;69.90;;;19.49;63.62;96625.59;6060452;23;19921;-86
2023/08/16 03:03:05;;;;;;;;;;;20.20;69.80;;;19.45;63.88;96637.31;6059170;23;19928;-86
2023/08/16 03:05:34;;;;;;;;;;;20.20;69.90;;;19.45;63.84;96642.88;6059898;23;19921;-86
2023/08/16 03:08:22;;;;;;;;;;;20.20;70.00;;;19.48;63.88;96655.28;6084153;23;19921;-86
2023/08/16 03:10:51;;;;;;;;;;;20.20;70.00;;;19.47;63.90;96650.88;6059891;23;20345;-87
2023/08/16 03:13:20;;;;;;;;;;;20.20;69.90;;;19.44;63.88;96646.78;6059910;23;19921;-86
2023/08/16 03:15:55;;;;;;;;;;;20.10;69.70;;;19.41;63.97;96632.72;6059730;23;19928;-86
2023/08/16 03:18:25;;;;;;;;;;;20.10;69.90;;;19.41;64.08;96639.09;6059803;23;19921;-86
2023/08/16 03:20:56;;;;;;;;;;;20.10;70.00;;;19.43;64.11;96644.31;6083308;23;20265;-86
2023/08/16 03:23:25;;;;;;;;;;;20.10;70.10;;;19.45;63.79;96653.16;6059323;23;19921;-86
2023/08/16 03:25:58;;;;;;;;;;;20.10;70.20;;;19.43;63.94;96649.88;6083203;23;20268;-86
2023/08/16 03:28:26;;;;;;;;;;;20.10;70.30;;;19.45;64.13;96669.81;6083233;23;19921;-86
2023/08/16 03:31:14;;;;;;;;;;;20.10;70.20;;;19.42;63.73;96678.78;6083001;23;19928;-87
2023/08/16 03:33:43;;;;;;;;;;;20.10;70.00;;;19.42;63.91;96699.03;6060065;23;19931;-86
2023/08/16 03:36:23;;;;;;;;;;;20.10;70.30;;;19.41;63.90;96702.13;6061345;23;19921;-86
2023/08/16 03:39:07;;;;;;;;;;;20.10;70.20;;;19.38;64.06;96684.13;6085145;23;19928;-86
2023/08/16 03:41:41;;;;;;;;;;;20.10;70.20;;;19.39;63.95;96687.75;6059901;23;19921;-86
2023/08/16 03:44:12;;;;;;;;;;;20.10;70.30;;;19.40;64.14;96686.63;6036136;23;19921;-87
2023/08/16 03:46:46;;;;;;;;;;;20.10;70.30;;;19.41;64.17;96674.38;6083177;23;19921;-86
2023/08/16 03:49:15;;;;;;;;;;;20.10;70.50;;;19.40;64.44;96667.19;6059854;23;19968;-86
2023/08/16 03:51:49;;;;;;;;;;;20.10;70.70;;;19.42;64.37;96685.16;6059326;23;19936;-87
2023/08/16 03:54:25;;;;;;;;;;;20.10;70.70;;;19.44;64.32;96695.94;6084959;23;20233;-86
2023/08/16 03:56:57;;;;;;;;;;;20.10;70.70;;;19.43;64.41;96691.50;6059435;23;19921;-86
2023/08/16 03:59:28;;;;;;;;;;;20.10;70.60;;;19.45;64.26;96680.91;6060578;23;19921;-86
2023/08/16 04:02:00;;;;;;;;;;;20.10;70.40;;;19.44;64.43;96698.72;6082232;23;19925;-86
2023/08/16 04:04:31;;;;;;;;;;;20.10;70.50;;;19.41;64.17;96693.81;6059327;23;20260;-86
2023/08/16 04:07:00;;;;;;;;;;;20.10;70.50;;;19.40;64.47;96711.59;6059453;23;19976;-86
2023/08/16 04:09:28;;;;;;;;;;;20.10;70.80;;;19.39;64.62;96698.84;6059514;23;19928;-86
2023/08/16 04:11:57;;;;;;;;;;;20.10;70.90;;;19.41;64.75;96674.38;6059498;23;19928;-86
2023/08/16 04:14:27;;;;;;;;;;;20.10;71.20;;;19.41;64.76;96649.38;6059328;23;19921;-86
2023/08/16 04:17:05;;;;;;;;;;;20.10;71.20;;;19.41;64.83;96649.38;6059369;23;19921;-86
2023/08/16 04:24:07;;;;;;;;;;;;;;;;;;;;;
2023/08/16 04:26:43;;;;;;;;;;;20.10;71.30;;;19.49;64.97;96575.63;6025354;23;19921;-86
2023/08/16 04:29:18;;;;;;;;;;;20.10;71.30;;;19.48;64.81;96597.00;6001898;23;19925;-86
2023/08/16 04:31:56;;;;;;;;;;;20.10;71.30;;;19.50;64.94;96585.56;6001338;23;20281;-86
2023/08/16 04:34:48;;;;;;;;;;;20.20;71.50;;;19.51;65.10;96601.91;6024070;23;19921;-86
2023/08/16 04:37:51;;;;;;;;;;;20.20;71.30;;;19.51;65.26;96590.81;6003356;23;19922;-86
2023/08/16 04:40:19;;;;;;;;;;;20.20;71.40;;;19.51;65.20;96589.97;6024609;23;20393;-86
2023/08/16 04:43:04;;;;;;;;;;;20.20;71.50;;;19.50;65.14;96600.28;6024252;23;19932;-86
2023/08/16 04:45:39;;;;;;;;;;;20.20;71.50;;;19.53;65.06;96607.97;6024644;23;19932;-86
2023/08/16 04:48:20;;;;;;;;;;;20.20;71.50;;;19.53;65.32;96615.47;6066157;23;19936;-86
2023/08/16 04:51:01;;;;;;;;;;;20.20;71.60;;;19.53;65.26;96616.31;6083154;23;19921;-87
2023/08/16 04:53:47;;;;;;;;;;;20.10;71.70;;;19.53;65.32;96610.75;6059446;23;19944;-86
2023/08/16 04:56:41;;;;;;;;;;;20.20;71.60;;;19.54;65.58;96629.06;6063098;23;19933;-86
2023/08/16 04:59:22;;;;;;;;;;;20.20;71.70;;;19.51;65.40;96613.03;6083891;23;19928;-87
2023/08/16 05:01:58;;;;;;;;;;;20.20;71.80;;;19.51;65.80;96613.03;6083569;23;20336;-86
2023/08/16 05:04:30;;;;;;;;;;;20.20;72.00;;;19.50;65.79;96627.19;6059578;23;19921;-86
2023/08/16 05:07:11;;;;;;;;;;;20.20;72.10;;;19.52;65.81;96611.03;6082641;23;19928;-86
2023/08/16 05:09:44;;;;;;;;;;;20.20;72.20;;;19.53;65.86;96621.84;6059907;23;19921;-86
2023/08/16 05:12:42;;;;;;;;;;;20.20;72.20;;;19.54;65.83;96645.72;6060647;23;20256;-87
2023/08/16 05:15:50;;;;;;;;;;;20.20;72.10;;;19.54;65.74;96656.81;6066265;23;19927;-86
2023/08/16 05:18:49;;;;;;;;;;;;;;;;;;;;;
2023/08/16 05:21:29;;;;;;;;;;;20.20;72.10;;;19.52;65.65;96681.31;6059278;23;19928;-87
2023/08/16 05:24:54;;;;;;;;;;;20.20;72.20;;;19.55;65.88;96677.06;6058674;23;19925;-86
2023/08/16 05:31:00;;;;;;;;;;;20.20;72.20;;;19.56;65.82;96671.19;6083114;23;19925;-86
2023/08/16 05:34:00;;;;;;;;;;;20.20;72.10;;;19.59;65.95;96675.31;6082810;23;19921;-86
2023/08/16 05:36:55;;;;;;;;;;;20.20;72.20;;;19.60;65.85;96665.84;6083831;23;19921;-86
2023/08/16 05:39:26;;;;;;;;;;;20.20;72.30;;;19.61;65.68;96668.28;6059182;23;19921;-86
2023/08/16 05:42:02;;;;;;;;;;;20.30;72.30;;;19.62;65.70;96681.03;6059645;23;20284;-86
2023/08/16 05:44:34;;;;;;;;;;;20.30;72.00;;;19.61;65.97;96679.38;6083158;23;20260;-86
2023/08/16 05:47:07;;;;;;;;;;;20.30;72.30;;;19.59;66.03;96676.09;6059235;23;20413;-86
2023/08/16 05:49:38;;;;;;;;;;;20.30;72.50;;;19.61;65.99;96671.06;6035648;23;19959;-86
2023/08/16 05:52:06;;;;;;;;;;;20.30;72.30;;;19.59;66.26;96670.56;6059112;23;19921;-86
2023/08/16 05:54:35;;;;;;;;;;;20.20;72.40;;;19.59;66.18;96665.00;6058878;23;20308;-86
2023/08/16 05:57:07;;;;;;;;;;;20.20;72.60;;;19.56;66.12;96659.28;6082745;23;20391;-86
2023/08/16 05:59:40;;;;;;;;;;;20.20;72.60;;;19.57;66.43;96675.59;6082953;23;19928;-86
2023/08/16 06:02:35;;;;;;;;;;;20.20;72.80;;;19.56;66.22;96676.72;6058932;23;20252;-86
2023/08/16 06:08:18;;;;;;;;;;;20.20;72.80;;;19.58;66.09;96721.69;6082317;23;20337;-86
2023/08/16 06:10:57;;;;;;;;;;;20.30;72.50;;;19.61;66.20;96723.03;6081982;23;19944;-86
2023/08/16 06:13:33;;;;;;;;;;;20.30;72.80;;;19.65;65.92;96725.97;6059626;23;19928;-86
2023/08/16 06:16:05;;;;;;;;;;;20.30;72.50;;;19.65;66.19;96706.53;6058856;23;19921;-86
2023/08/16 06:18:36;;;;;;;;;;;20.30;72.80;;;19.65;66.24;96689.88;6059861;23;19921;-86
2023/08/16 06:21:22;;;;;;;;;;;20.30;72.90;;;19.69;66.34;96696.41;6082712;23;20364;-86
2023/08/16 06:23:56;;;;;;;;;;;20.30;72.90;;;19.67;66.32;96688.41;6082365;23;19944;-86
2023/08/16 06:26:26;;;;;;;;;;;20.30;72.80;;;19.70;66.43;96698.06;6059377;23;19925;-86
2023/08/16 06:29:07;;;;;;;;;;;20.30;73.10;;;19.68;66.54;96689.25;6061820;23;19921;-86
2023/08/16 06:31:37;;;;;;;;;;;20.30;73.10;;;19.69;66.81;96697.25;6059840;23;19925;-86
2023/08/16 06:34:11;;;;;;;;;;;20.40;73.20;;;19.70;66.88;96720.28;6060140;23;19928;-86
2023/08/16 06:36:56;;;;;;;;;;;20.40;73.50;;;19.72;66.53;96729.13;6060220;23;20245;-86
2023/08/16 06:39:35;;;;;;;;;;;20.40;73.10;;;19.72;66.89;96731.91;6061612;23;19920;-86
2023/08/16 06:42:20;;;;;;;;;;;20.40;73.30;;;19.71;66.71;96727.47;6083343;23;19921;-86
2023/08/16 06:45:15;;;;;;;;;;;20.40;73.30;;;19.72;67.20;96720.78;6079060;23;19921;-86
2023/08/16 06:47:44;;;;;;;;;;;20.40;73.80;;;19.72;66.98;96740.22;6082981;23;19921;-86
2023/08/16 06:50:38;;;;;;;;;;;20.40;73.50;;;19.72;67.07;96745.78;6084208;23;19925;-86
2023/08/16 06:53:24;;;;;;;;;;;;;;;;;;;;;
2023/08/16 06:58:58;;;;;;;;;;;20.40;73.90;;;19.72;67.38;96754.94;6059962;23;19921;-86
2023/08/16 07:01:35;;;;;;;;;;;20.40;73.80;;;19.73;67.13;96739.94;6060373;23;20256;-86
2023/08/16 07:04:28;;;;;;;;;;;;;;;;;;;;;
2023/08/16 07:07:10;;;;;;;;;;;20.40;73.70;;;19.74;66.95;96726.84;6083681;23;19921;-86
2023/08/16 07:10:15;;;;;;;;;;;;;;;;;;;;;
2023/08/16 07:12:56;;;;;;;;;;;20.40;73.60;;;19.74;66.88;96721.28;6059933;23;19921;-86
2023/08/16 07:15:35;;;;;;;;;;;20.40;73.40;;;19.75;66.82;96729.28;6060215;23;19921;-86
2023/08/16 07:19:08;;;;;;;;;;;20.40;73.50;;;19.79;67.12;96718.41;6094859;23;20336;-86
2023/08/16 07:22:24;;;;;;;;;;;20.40;73.90;;;19.80;67.53;96725.59;6062608;23;19925;-87
2023/08/16 07:25:02;;;;;;;;;;;20.40;73.80;;;19.77;67.43;96713.13;5946580;24;19923;-91
2023/08/16 07:28:09;;;;;;;;;;;20.40;74.00;;;19.82;66.90;96712.19;6075346;23;19921;-86
2023/08/16 07:31:02;;;;;;;;;;;20.40;73.60;;;19.82;66.99;96712.19;6060571;23;19921;-87
2023/08/16 07:33:46;;;;;;;;;;;20.50;73.60;;;19.82;66.71;96681.63;6060309;23;19974;-87
2023/08/16 07:36:31;;;;;;;;;;;20.50;73.10;;;19.84;66.37;96645.19;6039720;23;19921;-87
2023/08/16 07:39:09;;;;;;;;;;;20.50;72.90;;;19.87;66.24;96625.16;6059325;23;19925;-87
2023/08/16 07:41:47;;;;;;;;;;;20.50;72.70;;;19.86;66.23;96638.19;6060669;23;19948;-87
2023/08/16 07:44:20;;;;;;;;;;;20.50;72.60;;;19.85;65.82;96633.75;6059969;23;19927;-87
2023/08/16 07:46:51;;;;;;;;;;;20.50;72.20;;;19.86;65.62;96635.44;6060461;23;19921;-86
2023/08/16 07:49:54;;;;;;;;;;;20.50;72.20;;;19.86;65.70;96646.53;6083335;23;20345;-87
2023/08/16 07:52:50;;;;;;;;;;;20.50;72.20;;;19.87;65.57;96675.16;6060889;23;19921;-87
2023/08/16 07:56:02;;;;;;;;;;;20.50;72.10;;;19.91;65.60;96703.94;6075167;23;19922;-87
2023/08/16 07:59:00;;;;;;;;;;;20.50;72.00;;;19.95;65.50;96704.09;5929846;23;19923;-87
2023/08/16 08:01:32;;;;;;;;;;;20.60;71.90;;;19.93;65.22;96712.75;6059268;23;19921;-87
2023/08/16 08:04:18;;;;;;;;;;;20.60;71.70;;;19.95;65.50;96734.66;6083557;23;19921;-87
2023/08/16 08:06:54;;;;;;;;;;;20.60;71.90;;;19.97;65.46;96732.38;6083415;23;19920;-86
2023/08/16 08:09:25;;;;;;;;;;;20.60;71.90;;;19.97;65.77;96690.72;6083533;23;19928;-87
2023/08/16 08:12:00;;;;;;;;;;;20.60;72.00;;;19.96;65.77;96700.19;6059774;23;19947;-87
2023/08/16 08:14:32;;;;;;;;;;;20.60;73.10;;;19.97;66.09;96708.22;6060316;23;20410;-87
2023/08/16 08:17:17;;;;;;;;;;;20.60;72.70;;;19.97;65.74;96679.59;6059787;23;19928;-87
2023/08/16 08:19:46;;;;;;;;;;;20.60;72.30;;;20.00;66.14;96665.06;6082599;23;19928;-87
2023/08/16 08:22:17;;;;;;;;;;;20.60;72.50;;;19.99;65.84;96688.44;6082264;23;19928;-87
2023/08/16 08:24:47;;;;;;;;;;;20.60;72.30;;;19.97;66.20;96679.59;6059293;23;19936;-87
2023/08/16 08:27:16;;;;;;;;;;;20.60;72.60;;;19.99;66.02;96650.38;6082992;23;20253;-87
2023/08/16 08:30:00;;;;;;;;;;;20.60;72.40;;;19.98;65.74;96595.09;6082849;23;19925;-87
2023/08/16 08:32:31;;;;;;;;;;;20.60;72.10;;;19.96;65.49;96553.75;6083800;23;19928;-87
2023/08/16 08:35:11;;;;;;;;;;;20.60;71.80;;;19.98;65.71;96558.97;6060489;23;19928;-87
2023/08/16 08:37:45;;;;;;;;;;;20.60;72.00;;;19.95;65.54;96590.16;6059939;23;19921;-87
2023/08/16 08:40:26;;;;;;;;;;;20.60;71.90;;;19.96;65.71;96634.31;6060430;23;19921;-87
2023/08/16 08:43:57;;;;;;;;;;;;;;;;;;;;;
2023/08/16 08:46:37;;;;;;;;;;;20.60;72.70;;;20.00;66.16;96653.94;6083680;23;20253;-87
2023/08/16 08:49:09;;;;;;;;;;;20.60;72.50;;;19.98;65.59;96584.81;6060082;23;19932;-87
2023/08/16 08:51:41;;;;;;;;;;;20.60;72.00;;;19.99;65.67;96578.13;6059966;23;19921;-87
2023/08/16 08:54:18;;;;;;;;;;;20.60;71.80;;;19.99;65.60;96600.34;6059896;23;20337;-87
2023/08/16 08:56:59;;;;;;;;;;;20.70;72.00;;;20.03;65.29;96664.44;6083742;23;19921;-87
2023/08/16 08:59:28;;;;;;;;;;;20.70;71.90;;;20.02;66.38;96682.25;6059411;23;19925;-87
2023/08/16 09:02:09;;;;;;;;;;;;;;;;;;;;;
2023/08/16 09:04:43;;;;;;;;;;;20.70;72.60;;;20.08;65.59;96689.28;6059585;23;19928;-87
2023/08/16 09:07:27;;;;;;;;;;;20.70;72.10;;;20.10;65.43;96684.22;6059636;23;19927;-87
2023/08/16 09:10:04;;;;;;;;;;;20.70;71.80;;;20.12;65.28;96675.59;6082897;23;19932;-87
2023/08/16 09:12:37;;;;;;;;;;;20.70;71.80;;;20.14;65.69;96679.69;6059150;23;19921;-87
2023/08/16 09:15:31;;;;;;;;;;;20.80;72.10;;;20.19;65.16;96679.53;6108069;23;20355;-87
2023/08/16 09:18:09;;;;;;;;;;;20.80;71.80;;;20.23;65.46;96672.19;6060187;23;19925;-87
2023/08/16 09:20:49;;;;;;;;;;;20.80;72.10;;;20.27;65.30;96652.88;6060795;23;19921;-87
2023/08/16 09:23:22;;;;;;;;;;;20.90;72.00;;;20.29;65.20;96630.34;6059068;23;19932;-87
2023/08/16 09:25:51;;;;;;;;;;;20.90;71.50;;;20.30;65.44;96615.28;6059274;23;19940;-87
2023/08/16 09:28:21;;;;;;;;;;;20.90;71.90;;;20.31;64.92;96645.53;6059224;23;19921;-88
2023/08/16 09:30:52;;;;;;;;;;;20.90;71.20;;;20.31;64.90;96692.00;6108212;23;19925;-87
2023/08/16 09:33:25;;;;;;;;;;;21.00;71.40;;;20.34;65.01;96694.13;6059478;23;20345;-87
2023/08/16 09:36:04;;;;;;;;;;;21.00;71.50;;;20.33;65.10;96690.53;6083454;23;20232;-87
2023/08/16 09:39:08;;;;;;;;;;;21.00;71.50;;;20.34;65.19;96708.03;6082986;23;19921;-87
2023/08/16 09:42:36;;;;;;;;;;;21.00;71.40;;;20.36;65.51;96702.97;6111746;23;19921;-87
2023/08/16 09:45:10;;;;;;;;;;;21.00;72.30;;;20.40;66.22;96692.84;6059405;23;19921;-87
2023/08/16 09:47:43;;;;;;;;;;;21.00;72.60;;;20.38;65.35;96678.44;6082731;23;19925;-87
2023/08/16 09:50:11;;;;;;;;;;;21.00;72.00;;;20.42;65.37;96678.59;6059273;23;20234;-87
2023/08/16 09:52:40;;;;;;;;;;;21.00;71.80;;;20.39;65.40;96672.56;6058815;23;19921;-87
2023/08/16 09:55:09;;;;;;;;;;;21.00;71.80;;;20.38;65.22;96657.03;6059513;23;20252;-87
2023/08/16 09:57:39;;;;;;;;;;;21.00;71.30;;;20.36;64.99;96645.41;6059420;23;19921;-87
2023/08/16 10:00:14;;;;;;;;;;;21.00;71.40;;;20.37;65.22;96646.22;6059212;23;20264;-87
2023/08/16 10:02:48;;;;;;;;;;;21.00;71.30;;;20.38;65.45;96645.06;6081604;23;20252;-87
2023/08/16 10:05:17;;;;;;;;;;;21.00;71.80;;;20.36;65.50;96644.56;6059268;23;19921;-87
2023/08/16 10:07:47;;;;;;;;;;;21.00;72.00;;;20.35;66.29;96640.16;6059416;23;19921;-87
2023/08/16 10:10:25;;;;;;;;;;;21.00;72.50;;;20.37;66.16;96615.63;6061066;23;19928;-87
2023/08/16 10:13:01;;;;;;;;;;;21.00;72.40;;;20.38;65.77;96628.38;6082188;23;19921;-87
2023/08/16 10:15:37;;;;;;;;;;;21.00;72.20;;;20.41;65.65;96622.19;6082935;23;19921;-87
2023/08/16 10:18:07;;;;;;;;;;;21.00;72.00;;;20.44;65.62;96632.66;6083307;23;19921;-87
2023/08/16 10:20:59;;;;;;;;;;;;;;;;;;;;;
2023/08/16 10:23:32;;;;;;;;;;;21.10;72.10;;;20.47;65.55;96612.53;6082203;23;19921;-87
2023/08/16 10:26:05;;;;;;;;;;;21.10;72.00;;;20.50;65.43;96616.66;6059358;23;19928;-87
2023/08/16 10:28:34;;;;;;;;;;;21.10;71.80;;;20.51;65.43;96626.63;6059012;23;19929;-87
2023/08/16 10:31:11;;;;;;;;;;;21.10;71.90;;;20.53;65.58;96629.88;6058595;23;19928;-88
2023/08/16 10:33:44;;;;;;;;;;;21.20;72.00;;;20.57;65.24;96630.06;6082227;23;19921;-87
2023/08/16 10:36:15;;;;;;;;;;;21.20;71.70;;;20.58;65.52;96631.72;6059341;23;19928;-87
2023/08/16 10:38:44;;;;;;;;;;;21.20;71.70;;;20.58;65.62;96629.72;6082119;23;19928;-87
2023/08/16 10:41:17;;;;;;;;;;;21.20;72.20;;;20.61;65.86;96626.31;6059628;23;20329;-87
2023/08/16 10:43:47;;;;;;;;;;;21.30;72.10;;;20.64;65.81;96619.25;6058983;23;19928;-87
2023/08/16 10:46:28;;;;;;;;;;;21.30;72.20;;;20.65;65.58;96610.59;6058605;23;19928;-87
2023/08/16 10:48:59;;;;;;;;;;;21.30;71.80;;;20.67;65.52;96604.72;6059121;23;19937;-87
2023/08/16 10:51:30;;;;;;;;;;;21.30;72.00;;;20.69;65.63;96616.34;6081635;23;19928;-87
2023/08/16 10:54:09;;;;;;;;;;;;;;;;;;;;;
2023/08/16 10:56:44;;;;;;;;;;;21.30;71.60;;;20.75;65.55;96614.22;6059037;23;20341;-87
2023/08/16 10:59:16;;;;;;;;;;;21.40;72.00;;;20.80;66.18;96612.09;6083450;23;20336;-87
2023/08/16 11:01:50;;;;;;;;;;;21.40;72.40;;;20.87;65.51;96616.34;6058609;23;19921;-87
2023/08/16 11:04:24;;;;;;;;;;;21.50;72.00;;;20.96;65.45;96628.31;6058702;23;19944;-87
2023/08/16 11:06:52;;;;;;;;;;;21.60;71.80;;;20.99;65.20;96611.78;6058683;23;19921;-87
2023/08/16 11:09:21;;;;;;;;;;;21.60;71.60;;;21.00;65.07;96598.66;6058457;23;19921;-87
2023/08/16 11:11:52;;;;;;;;;;;21.70;71.50;;;21.02;65.20;96596.38;6082117;23;19929;-87
2023/08/16 11:14:21;;;;;;;;;;;21.70;71.30;;;21.02;65.15;96596.38;6083602;23;19921;-87
2023/08/16 11:16:58;;;;;;;;;;;21.70;71.60;;;21.06;64.87;96602.94;6108764;23;20375;-87
2023/08/16 11:19:27;;;;;;;;;;;21.70;71.00;;;21.05;64.87;96604.06;6059898;23;20268;-87
2023/08/16 11:21:58;;;;;;;;;;;21.70;71.10;;;21.05;64.84;96598.50;6059927;23;20328;-87
2023/08/16 11:24:26;;;;;;;;;;;21.70;71.10;;;21.03;64.55;96598.00;6060121;23;19921;-87
2023/08/16 11:26:57;;;;;;;;;;;21.70;70.80;;;21.03;64.31;96606.34;6083007;23;19921;-87
2023/08/16 11:29:25;;;;;;;;;;;21.70;70.60;;;21.01;64.23;96617.00;6059840;23;19928;-87
2023/08/16 11:31:57;;;;;;;;;;;21.70;70.60;;;20.99;64.60;96619.28;6059355;23;19928;-87
2023/08/16 11:34:26;;;;;;;;;;;21.60;70.70;;;20.96;64.49;96603.28;6060209;23;19921;-87
2023/08/16 11:36:54;;;;;;;;;;;21.60;70.60;;;20.97;64.73;96610.47;6059764;23;19920;-87
2023/08/16 11:39:27;;;;;;;;;;;21.60;70.60;;;20.93;64.48;96596.38;6059679;23;19921;-87
2023/08/16 11:41:55;;;;;;;;;;;21.60;70.60;;;20.93;64.36;96604.72;6059216;23;20395;-87
2023/08/16 11:44:24;;;;;;;;;;;21.60;70.40;;;20.95;64.29;96607.19;6059755;23;20341;-87
2023/08/16 11:46:53;;;;;;;;;;;21.60;70.50;;;20.92;64.31;96597.50;6059802;23;19928;-87
2023/08/16 11:49:23;;;;;;;;;;;21.60;70.30;;;20.93;64.17;96603.91;6059631;23;19921;-87
2023/08/16 11:51:52;;;;;;;;;;;21.60;70.30;;;20.90;64.28;96605.41;6082181;23;19944;-87
2023/08/16 11:54:21;;;;;;;;;;;21.60;70.30;;;20.91;64.25;96606.19;6059967;23;20364;-87
2023/08/16 11:56:51;;;;;;;;;;;21.50;70.40;;;20.91;64.14;96614.56;6059830;23;20241;-87
2023/08/16 11:59:27;;;;;;;;;;;21.50;70.30;;;20.91;64.51;96611.78;6059671;23;19932;-87
2023/08/16 12:01:55;;;;;;;;;;;21.50;71.50;;;20.91;64.93;96617.34;6059628;23;19921;-87
2023/08/16 12:04:25;;;;;;;;;;;21.50;70.90;;;20.90;64.55;96624.03;6083064;23;19944;-87
2023/08/16 12:06:54;;;;;;;;;;;21.50;70.80;;;20.90;64.79;96615.69;6083131;23;19932;-87
2023/08/16 12:09:22;;;;;;;;;;;21.50;70.90;;;20.90;64.60;96610.97;6059997;23;19928;-87
2023/08/16 12:11:51;;;;;;;;;;;21.50;70.80;;;20.93;64.61;96620.63;6059229;23;19921;-87
2023/08/16 12:14:19;;;;;;;;;;;21.50;70.80;;;20.91;64.60;96612.59;6059722;23;20349;-87
2023/08/16 12:16:48;;;;;;;;;;;21.50;70.90;;;20.93;64.81;96612.28;6083256;23;19920;-87
2023/08/16 12:19:21;;;;;;;;;;;21.60;70.80;;;20.94;64.73;96600.00;6059707;23;19932;-87
2023/08/16 12:21:52;;;;;;;;;;;21.60;70.80;;;20.93;64.46;96595.56;6082728;23;19925;-87
2023/08/16 12:24:21;;;;;;;;;;;21.60;70.90;;;20.95;64.84;96596.06;6059596;23;19921;-87
2023/08/16 12:26:51;;;;;;;;;;;21.60;70.90;;;20.97;64.45;96604.91;6108297;23;19947;-87
2023/08/16 12:29:19;;;;;;;;;;;21.60;70.80;;;20.97;64.56;96616.03;6059569;23;19925;-87